sensor_id;sensor_type;location;lat;lon;timestamp;P1;durP1;ratioP1;P2;durP2;ratioP2
10721;SDS011;5412;59.450;18.124;2022-08-21T00:02:19;3.85;;;1.33;;
10721;SDS011;5412;59.450;18.124;2022-08-21T00:04:46;3.55;;;1.45;;
10721;SDS011;5412;59.450;18.124;2022-08-21T00:07:13;4.30;;;1.30;;
10721;SDS011;5412;59.450;18.124;2022-08-21T00:09:39;3.17;;;1.30;;
10721;SDS011;5412;59.450;18.124;2022-08-21T00:12:06;2.88;;;1.20;;
10721;SDS011;5412;59.450;18.124;2022-08-21T00:14:32;3.53;;;1.40;;
10721;SDS011;5412;59.450;18.124;2022-08-21T00:16:57;4.72;;;1.42;;
10721;SDS011;5412;59.450;18.124;2022-08-21T00:19:23;3.63;;;1.40;;
10721;SDS011;5412;59.450;18.124;2022-08-21T00:21:50;4.40;;;1.30;;
10721;SDS011;5412;59.450;18.124;2022-08-21T00:24:17;3.15;;;1.35;;
10721;SDS011;5412;59.450;18.124;2022-08-21T00:26:43;2.45;;;1.13;;
10721;SDS011;5412;59.450;18.124;2022-08-21T00:29:10;2.22;;;1.23;;
10721;SDS011;5412;59.450;18.124;2022-08-21T00:31:36;5.28;;;1.52;;
10721;SDS011;5412;59.450;18.124;2022-08-21T00:34:02;3.45;;;1.40;;
10721;SDS011;5412;59.450;18.124;2022-08-21T00:36:28;2.45;;;1.20;;
10721;SDS011;5412;59.450;18.124;2022-08-21T00:38:54;4.18;;;1.33;;
10721;SDS011;5412;59.450;18.124;2022-08-21T00:41:20;2.03;;;1.42;;
10721;SDS011;5412;59.450;18.124;2022-08-21T00:43:48;6.15;;;1.33;;
10721;SDS011;5412;59.450;18.124;2022-08-21T00:46:14;5.57;;;1.38;;
10721;SDS011;5412;59.450;18.124;2022-08-21T00:48:40;2.78;;;1.33;;
10721;SDS011;5412;59.450;18.124;2022-08-21T00:51:24;2.67;;;1.40;;
10721;SDS011;5412;59.450;18.124;2022-08-21T00:53:56;4.05;;;1.25;;
10721;SDS011;5412;59.450;18.124;2022-08-21T00:56:24;6.93;;;1.27;;
10721;SDS011;5412;59.450;18.124;2022-08-21T00:58:51;3.85;;;1.10;;
10721;SDS011;5412;59.450;18.124;2022-08-21T01:01:18;4.45;;;1.35;;
10721;SDS011;5412;59.450;18.124;2022-08-21T01:03:45;4.03;;;1.10;;
10721;SDS011;5412;59.450;18.124;2022-08-21T01:06:11;4.38;;;1.45;;
10721;SDS011;5412;59.450;18.124;2022-08-21T01:08:37;2.83;;;1.50;;
10721;SDS011;5412;59.450;18.124;2022-08-21T01:11:03;12.25;;;1.80;;
10721;SDS011;5412;59.450;18.124;2022-08-21T01:13:31;5.00;;;1.30;;
10721;SDS011;5412;59.450;18.124;2022-08-21T01:16:00;5.47;;;1.75;;
10721;SDS011;5412;59.450;18.124;2022-08-21T01:18:29;5.57;;;1.50;;
10721;SDS011;5412;59.450;18.124;2022-08-21T01:21:15;6.32;;;1.40;;
10721;SDS011;5412;59.450;18.124;2022-08-21T01:23:45;4.57;;;1.20;;
10721;SDS011;5412;59.450;18.124;2022-08-21T01:26:14;4.95;;;1.85;;
10721;SDS011;5412;59.450;18.124;2022-08-21T01:28:46;6.00;;;1.27;;
10721;SDS011;5412;59.450;18.124;2022-08-21T01:31:29;4.15;;;1.33;;
10721;SDS011;5412;59.450;18.124;2022-08-21T01:33:56;3.03;;;1.50;;
10721;SDS011;5412;59.450;18.124;2022-08-21T01:36:22;4.22;;;1.48;;
10721;SDS011;5412;59.450;18.124;2022-08-21T01:38:48;5.60;;;1.45;;
10721;SDS011;5412;59.450;18.124;2022-08-21T01:41:15;4.60;;;1.55;;
10721;SDS011;5412;59.450;18.124;2022-08-21T01:43:42;5.28;;;1.67;;
10721;SDS011;5412;59.450;18.124;2022-08-21T01:46:08;3.67;;;1.98;;
10721;SDS011;5412;59.450;18.124;2022-08-21T01:48:34;6.75;;;1.60;;
10721;SDS011;5412;59.450;18.124;2022-08-21T01:51:01;3.80;;;1.55;;
10721;SDS011;5412;59.450;18.124;2022-08-21T01:53:26;4.32;;;1.48;;
10721;SDS011;5412;59.450;18.124;2022-08-21T01:55:52;5.07;;;1.75;;
10721;SDS011;5412;59.450;18.124;2022-08-21T01:58:18;4.93;;;1.60;;
10721;SDS011;5412;59.450;18.124;2022-08-21T02:00:44;3.58;;;1.92;;
10721;SDS011;5412;59.450;18.124;2022-08-21T02:03:09;3.80;;;1.50;;
10721;SDS011;5412;59.450;18.124;2022-08-21T02:05:35;5.70;;;1.90;;
10721;SDS011;5412;59.450;18.124;2022-08-21T02:08:01;4.82;;;1.38;;
10721;SDS011;5412;59.450;18.124;2022-08-21T02:10:28;5.97;;;1.65;;
10721;SDS011;5412;59.450;18.124;2022-08-21T02:12:55;4.65;;;1.50;;
10721;SDS011;5412;59.450;18.124;2022-08-21T02:15:21;4.32;;;1.48;;
10721;SDS011;5412;59.450;18.124;2022-08-21T02:17:56;7.45;;;1.60;;
10721;SDS011;5412;59.450;18.124;2022-08-21T02:22:55;4.20;;;1.50;;
10721;SDS011;5412;59.450;18.124;2022-08-21T02:25:21;1.92;;;1.20;;
10721;SDS011;5412;59.450;18.124;2022-08-21T02:27:48;5.10;;;1.60;;
10721;SDS011;5412;59.450;18.124;2022-08-21T02:30:18;6.90;;;2.20;;
10721;SDS011;5412;59.450;18.124;2022-08-21T02:32:47;4.50;;;1.60;;
10721;SDS011;5412;59.450;18.124;2022-08-21T02:35:13;4.07;;;1.30;;
10721;SDS011;5412;59.450;18.124;2022-08-21T02:37:49;6.63;;;1.60;;
10721;SDS011;5412;59.450;18.124;2022-08-21T02:40:18;6.82;;;1.60;;
10721;SDS011;5412;59.450;18.124;2022-08-21T02:42:46;4.32;;;1.40;;
10721;SDS011;5412;59.450;18.124;2022-08-21T02:45:12;8.77;;;1.45;;
10721;SDS011;5412;59.450;18.124;2022-08-21T02:47:39;9.45;;;1.92;;
10721;SDS011;5412;59.450;18.124;2022-08-21T02:50:05;3.67;;;1.30;;
10721;SDS011;5412;59.450;18.124;2022-08-21T02:52:32;3.33;;;1.40;;
10721;SDS011;5412;59.450;18.124;2022-08-21T02:54:59;4.75;;;1.80;;
10721;SDS011;5412;59.450;18.124;2022-08-21T02:57:24;2.55;;;1.40;;
10721;SDS011;5412;59.450;18.124;2022-08-21T02:59:50;3.42;;;1.67;;
10721;SDS011;5412;59.450;18.124;2022-08-21T03:02:16;7.32;;;1.63;;
10721;SDS011;5412;59.450;18.124;2022-08-21T03:04:41;3.25;;;1.52;;
10721;SDS011;5412;59.450;18.124;2022-08-21T03:07:07;3.83;;;1.65;;
10721;SDS011;5412;59.450;18.124;2022-08-21T03:09:32;3.80;;;1.38;;
10721;SDS011;5412;59.450;18.124;2022-08-21T03:11:58;5.72;;;1.38;;
10721;SDS011;5412;59.450;18.124;2022-08-21T03:14:23;4.28;;;1.63;;
10721;SDS011;5412;59.450;18.124;2022-08-21T03:16:49;3.10;;;1.50;;
10721;SDS011;5412;59.450;18.124;2022-08-21T03:19:14;4.00;;;1.40;;
10721;SDS011;5412;59.450;18.124;2022-08-21T03:21:40;6.10;;;1.85;;
10721;SDS011;5412;59.450;18.124;2022-08-21T03:24:06;8.88;;;1.90;;
10721;SDS011;5412;59.450;18.124;2022-08-21T03:26:32;6.10;;;1.60;;
10721;SDS011;5412;59.450;18.124;2022-08-21T03:28:57;6.93;;;1.80;;
10721;SDS011;5412;59.450;18.124;2022-08-21T03:31:24;5.55;;;1.88;;
10721;SDS011;5412;59.450;18.124;2022-08-21T03:33:53;5.50;;;1.70;;
10721;SDS011;5412;59.450;18.124;2022-08-21T03:36:20;4.53;;;1.45;;
10721;SDS011;5412;59.450;18.124;2022-08-21T03:38:46;4.38;;;1.58;;
10721;SDS011;5412;59.450;18.124;2022-08-21T03:41:11;4.00;;;1.85;;
10721;SDS011;5412;59.450;18.124;2022-08-21T03:43:37;5.72;;;1.65;;
10721;SDS011;5412;59.450;18.124;2022-08-21T03:46:04;6.25;;;1.30;;
10721;SDS011;5412;59.450;18.124;2022-08-21T03:48:30;4.53;;;1.50;;
10721;SDS011;5412;59.450;18.124;2022-08-21T03:50:57;4.25;;;1.33;;
10721;SDS011;5412;59.450;18.124;2022-08-21T03:53:22;3.65;;;1.75;;
10721;SDS011;5412;59.450;18.124;2022-08-21T03:55:49;4.70;;;1.40;;
10721;SDS011;5412;59.450;18.124;2022-08-21T03:58:17;4.75;;;1.80;;
10721;SDS011;5412;59.450;18.124;2022-08-21T04:00:46;3.58;;;1.52;;
10721;SDS011;5412;59.450;18.124;2022-08-21T04:03:13;5.43;;;1.70;;
10721;SDS011;5412;59.450;18.124;2022-08-21T04:05:39;2.30;;;1.45;;
10721;SDS011;5412;59.450;18.124;2022-08-21T04:08:05;5.68;;;2.30;;
10721;SDS011;5412;59.450;18.124;2022-08-21T04:10:32;6.50;;;2.00;;
10721;SDS011;5412;59.450;18.124;2022-08-21T04:13:00;2.88;;;1.70;;
10721;SDS011;5412;59.450;18.124;2022-08-21T04:15:26;4.57;;;1.58;;
10721;SDS011;5412;59.450;18.124;2022-08-21T04:17:52;7.60;;;1.67;;
10721;SDS011;5412;59.450;18.124;2022-08-21T04:20:18;6.68;;;1.95;;
10721;SDS011;5412;59.450;18.124;2022-08-21T04:22:46;2.80;;;1.60;;
10721;SDS011;5412;59.450;18.124;2022-08-21T04:25:13;5.72;;;1.70;;
10721;SDS011;5412;59.450;18.124;2022-08-21T04:27:40;8.30;;;1.75;;
10721;SDS011;5412;59.450;18.124;2022-08-21T04:30:06;3.35;;;1.40;;
10721;SDS011;5412;59.450;18.124;2022-08-21T04:32:34;2.88;;;1.30;;
10721;SDS011;5412;59.450;18.124;2022-08-21T04:35:01;3.97;;;1.50;;
10721;SDS011;5412;59.450;18.124;2022-08-21T04:37:32;4.03;;;1.58;;
10721;SDS011;5412;59.450;18.124;2022-08-21T04:39:58;5.40;;;2.13;;
10721;SDS011;5412;59.450;18.124;2022-08-21T04:42:25;5.30;;;1.75;;
10721;SDS011;5412;59.450;18.124;2022-08-21T04:44:52;3.45;;;1.63;;
10721;SDS011;5412;59.450;18.124;2022-08-21T04:47:19;7.63;;;2.38;;
10721;SDS011;5412;59.450;18.124;2022-08-21T04:49:46;5.95;;;1.90;;
10721;SDS011;5412;59.450;18.124;2022-08-21T04:52:13;6.75;;;1.80;;
10721;SDS011;5412;59.450;18.124;2022-08-21T04:54:42;8.23;;;1.67;;
10721;SDS011;5412;59.450;18.124;2022-08-21T04:57:10;4.10;;;1.45;;
10721;SDS011;5412;59.450;18.124;2022-08-21T04:59:38;3.85;;;1.70;;
10721;SDS011;5412;59.450;18.124;2022-08-21T05:02:12;5.60;;;1.67;;
10721;SDS011;5412;59.450;18.124;2022-08-21T05:04:42;5.53;;;1.40;;
10721;SDS011;5412;59.450;18.124;2022-08-21T05:07:12;8.15;;;2.10;;
10721;SDS011;5412;59.450;18.124;2022-08-21T05:09:42;5.97;;;1.60;;
10721;SDS011;5412;59.450;18.124;2022-08-21T05:12:08;5.70;;;1.73;;
10721;SDS011;5412;59.450;18.124;2022-08-21T05:14:34;7.35;;;1.88;;
10721;SDS011;5412;59.450;18.124;2022-08-21T05:17:00;5.88;;;2.00;;
10721;SDS011;5412;59.450;18.124;2022-08-21T05:19:25;5.70;;;1.70;;
10721;SDS011;5412;59.450;18.124;2022-08-21T05:21:51;5.50;;;1.45;;
10721;SDS011;5412;59.450;18.124;2022-08-21T05:24:17;6.50;;;1.65;;
10721;SDS011;5412;59.450;18.124;2022-08-21T05:26:43;4.57;;;1.50;;
10721;SDS011;5412;59.450;18.124;2022-08-21T05:29:09;5.95;;;1.75;;
10721;SDS011;5412;59.450;18.124;2022-08-21T05:31:36;11.35;;;2.00;;
10721;SDS011;5412;59.450;18.124;2022-08-21T05:34:02;6.97;;;2.25;;
10721;SDS011;5412;59.450;18.124;2022-08-21T05:36:28;3.10;;;1.52;;
10721;SDS011;5412;59.450;18.124;2022-08-21T05:38:54;2.83;;;1.80;;
10721;SDS011;5412;59.450;18.124;2022-08-21T05:41:20;5.30;;;1.40;;
10721;SDS011;5412;59.450;18.124;2022-08-21T05:43:46;8.73;;;2.00;;
10721;SDS011;5412;59.450;18.124;2022-08-21T05:46:11;4.70;;;1.52;;
10721;SDS011;5412;59.450;18.124;2022-08-21T05:48:37;6.88;;;2.00;;
10721;SDS011;5412;59.450;18.124;2022-08-21T05:51:09;4.07;;;1.83;;
10721;SDS011;5412;59.450;18.124;2022-08-21T05:53:37;6.47;;;1.73;;
10721;SDS011;5412;59.450;18.124;2022-08-21T05:56:04;7.05;;;1.95;;
10721;SDS011;5412;59.450;18.124;2022-08-21T05:58:31;6.10;;;2.05;;
10721;SDS011;5412;59.450;18.124;2022-08-21T06:00:58;7.82;;;1.83;;
10721;SDS011;5412;59.450;18.124;2022-08-21T06:03:26;4.82;;;1.52;;
10721;SDS011;5412;59.450;18.124;2022-08-21T06:05:54;6.55;;;1.98;;
10721;SDS011;5412;59.450;18.124;2022-08-21T06:08:21;7.15;;;2.20;;
10721;SDS011;5412;59.450;18.124;2022-08-21T06:10:47;3.65;;;1.55;;
10721;SDS011;5412;59.450;18.124;2022-08-21T06:13:14;7.90;;;2.10;;
10721;SDS011;5412;59.450;18.124;2022-08-21T06:15:41;6.13;;;1.70;;
10721;SDS011;5412;59.450;18.124;2022-08-21T06:18:08;7.32;;;1.63;;
10721;SDS011;5412;59.450;18.124;2022-08-21T06:20:34;6.00;;;1.65;;
10721;SDS011;5412;59.450;18.124;2022-08-21T06:23:00;5.85;;;1.80;;
10721;SDS011;5412;59.450;18.124;2022-08-21T06:25:26;4.45;;;1.77;;
10721;SDS011;5412;59.450;18.124;2022-08-21T06:27:52;7.88;;;2.10;;
10721;SDS011;5412;59.450;18.124;2022-08-21T06:30:17;7.30;;;1.60;;
10721;SDS011;5412;59.450;18.124;2022-08-21T06:32:44;8.77;;;2.03;;
10721;SDS011;5412;59.450;18.124;2022-08-21T06:35:09;5.55;;;2.35;;
10721;SDS011;5412;59.450;18.124;2022-08-21T06:37:36;7.05;;;1.92;;
10721;SDS011;5412;59.450;18.124;2022-08-21T06:40:02;5.30;;;1.73;;
10721;SDS011;5412;59.450;18.124;2022-08-21T06:42:29;5.80;;;1.90;;
10721;SDS011;5412;59.450;18.124;2022-08-21T06:44:56;4.70;;;1.70;;
10721;SDS011;5412;59.450;18.124;2022-08-21T06:47:22;5.38;;;1.52;;
10721;SDS011;5412;59.450;18.124;2022-08-21T06:49:48;4.22;;;1.70;;
10721;SDS011;5412;59.450;18.124;2022-08-21T06:52:13;5.35;;;1.95;;
10721;SDS011;5412;59.450;18.124;2022-08-21T06:54:39;8.90;;;1.98;;
10721;SDS011;5412;59.450;18.124;2022-08-21T06:57:05;5.97;;;1.80;;
10721;SDS011;5412;59.450;18.124;2022-08-21T06:59:31;11.02;;;1.92;;
10721;SDS011;5412;59.450;18.124;2022-08-21T07:01:57;7.68;;;1.90;;
10721;SDS011;5412;59.450;18.124;2022-08-21T07:04:23;8.73;;;2.20;;
10721;SDS011;5412;59.450;18.124;2022-08-21T07:06:49;8.30;;;1.90;;
10721;SDS011;5412;59.450;18.124;2022-08-21T07:09:15;7.00;;;2.00;;
10721;SDS011;5412;59.450;18.124;2022-08-21T07:11:40;5.25;;;1.60;;
10721;SDS011;5412;59.450;18.124;2022-08-21T07:14:06;7.22;;;2.35;;
10721;SDS011;5412;59.450;18.124;2022-08-21T07:16:32;6.30;;;1.70;;
10721;SDS011;5412;59.450;18.124;2022-08-21T07:18:58;8.05;;;2.10;;
10721;SDS011;5412;59.450;18.124;2022-08-21T07:21:23;5.40;;;1.67;;
10721;SDS011;5412;59.450;18.124;2022-08-21T07:23:50;3.08;;;1.55;;
10721;SDS011;5412;59.450;18.124;2022-08-21T07:26:18;5.57;;;1.60;;
10721;SDS011;5412;59.450;18.124;2022-08-21T07:28:45;6.43;;;2.10;;
10721;SDS011;5412;59.450;18.124;2022-08-21T07:31:13;8.05;;;2.03;;
10721;SDS011;5412;59.450;18.124;2022-08-21T07:33:41;8.38;;;1.83;;
10721;SDS011;5412;59.450;18.124;2022-08-21T07:36:08;7.38;;;2.25;;
10721;SDS011;5412;59.450;18.124;2022-08-21T07:38:34;3.60;;;1.40;;
10721;SDS011;5412;59.450;18.124;2022-08-21T07:41:00;7.30;;;1.70;;
10721;SDS011;5412;59.450;18.124;2022-08-21T07:43:27;6.10;;;1.90;;
10721;SDS011;5412;59.450;18.124;2022-08-21T07:45:53;10.18;;;2.28;;
10721;SDS011;5412;59.450;18.124;2022-08-21T07:48:20;6.85;;;1.67;;
10721;SDS011;5412;59.450;18.124;2022-08-21T07:50:47;7.53;;;1.95;;
10721;SDS011;5412;59.450;18.124;2022-08-21T07:53:13;5.72;;;1.92;;
10721;SDS011;5412;59.450;18.124;2022-08-21T07:55:39;5.20;;;1.85;;
10721;SDS011;5412;59.450;18.124;2022-08-21T07:58:05;6.10;;;1.60;;
10721;SDS011;5412;59.450;18.124;2022-08-21T08:00:31;5.35;;;2.03;;
10721;SDS011;5412;59.450;18.124;2022-08-21T08:02:57;7.53;;;1.73;;
10721;SDS011;5412;59.450;18.124;2022-08-21T08:05:26;5.20;;;1.90;;
10721;SDS011;5412;59.450;18.124;2022-08-21T08:07:53;7.63;;;1.98;;
10721;SDS011;5412;59.450;18.124;2022-08-21T08:10:20;6.80;;;1.90;;
10721;SDS011;5412;59.450;18.124;2022-08-21T08:12:46;7.32;;;1.80;;
10721;SDS011;5412;59.450;18.124;2022-08-21T08:15:15;4.40;;;2.05;;
10721;SDS011;5412;59.450;18.124;2022-08-21T08:17:42;4.63;;;1.70;;
10721;SDS011;5412;59.450;18.124;2022-08-21T08:20:09;8.90;;;2.05;;
10721;SDS011;5412;59.450;18.124;2022-08-21T08:22:37;7.18;;;2.63;;
10721;SDS011;5412;59.450;18.124;2022-08-21T08:25:04;5.53;;;2.00;;
10721;SDS011;5412;59.450;18.124;2022-08-21T08:27:31;6.85;;;1.73;;
10721;SDS011;5412;59.450;18.124;2022-08-21T08:29:57;6.13;;;1.55;;
10721;SDS011;5412;59.450;18.124;2022-08-21T08:32:23;10.00;;;1.90;;
10721;SDS011;5412;59.450;18.124;2022-08-21T08:34:49;3.50;;;1.50;;
10721;SDS011;5412;59.450;18.124;2022-08-21T08:37:17;10.52;;;2.33;;
10721;SDS011;5412;59.450;18.124;2022-08-21T08:39:43;6.43;;;1.60;;
10721;SDS011;5412;59.450;18.124;2022-08-21T08:42:12;6.55;;;1.80;;
10721;SDS011;5412;59.450;18.124;2022-08-21T08:44:45;6.80;;;1.63;;
10721;SDS011;5412;59.450;18.124;2022-08-21T08:47:12;4.78;;;1.88;;
10721;SDS011;5412;59.450;18.124;2022-08-21T08:50:04;6.43;;;1.92;;
10721;SDS011;5412;59.450;18.124;2022-08-21T08:52:33;6.35;;;1.85;;
10721;SDS011;5412;59.450;18.124;2022-08-21T08:57:46;6.90;;;1.98;;
10721;SDS011;5412;59.450;18.124;2022-08-21T09:00:15;4.63;;;1.63;;
10721;SDS011;5412;59.450;18.124;2022-08-21T09:02:46;6.93;;;1.90;;
10721;SDS011;5412;59.450;18.124;2022-08-21T09:05:23;9.48;;;1.73;;
10721;SDS011;5412;59.450;18.124;2022-08-21T09:08:14;5.53;;;1.70;;
10721;SDS011;5412;59.450;18.124;2022-08-21T09:11:04;8.85;;;2.40;;
10721;SDS011;5412;59.450;18.124;2022-08-21T09:22:02;7.28;;;2.20;;
10721;SDS011;5412;59.450;18.124;2022-08-21T09:24:33;8.90;;;1.98;;
10721;SDS011;5412;59.450;18.124;2022-08-21T09:27:25;3.63;;;1.63;;
10721;SDS011;5412;59.450;18.124;2022-08-21T09:29:52;5.57;;;2.00;;
10721;SDS011;5412;59.450;18.124;2022-08-21T09:37:29;7.40;;;1.40;;
10721;SDS011;5412;59.450;18.124;2022-08-21T09:39:56;4.60;;;1.80;;
10721;SDS011;5412;59.450;18.124;2022-08-21T09:42:24;4.43;;;1.75;;
10721;SDS011;5412;59.450;18.124;2022-08-21T09:47:39;2.65;;;1.13;;
10721;SDS011;5412;59.450;18.124;2022-08-21T09:50:07;6.15;;;1.40;;
10721;SDS011;5412;59.450;18.124;2022-08-21T09:52:41;4.85;;;1.25;;
10721;SDS011;5412;59.450;18.124;2022-08-21T09:55:13;3.97;;;1.38;;
10721;SDS011;5412;59.450;18.124;2022-08-21T09:58:03;3.60;;;1.40;;
10721;SDS011;5412;59.450;18.124;2022-08-21T10:00:30;4.60;;;1.45;;
10721;SDS011;5412;59.450;18.124;2022-08-21T10:05:57;6.35;;;1.58;;
10721;SDS011;5412;59.450;18.124;2022-08-21T10:08:31;3.22;;;1.50;;
10721;SDS011;5412;59.450;18.124;2022-08-21T10:11:05;5.35;;;1.60;;
10721;SDS011;5412;59.450;18.124;2022-08-21T10:27:37;4.28;;;1.50;;
10721;SDS011;5412;59.450;18.124;2022-08-21T10:49:20;4.57;;;1.40;;
10721;SDS011;5412;59.450;18.124;2022-08-21T10:55:02;3.95;;;1.52;;
10721;SDS011;5412;59.450;18.124;2022-08-21T10:57:40;3.85;;;1.40;;
10721;SDS011;5412;59.450;18.124;2022-08-21T11:00:23;3.50;;;1.40;;
10721;SDS011;5412;59.450;18.124;2022-08-21T11:03:11;2.17;;;1.20;;
10721;SDS011;5412;59.450;18.124;2022-08-21T11:06:02;4.72;;;1.50;;
10721;SDS011;5412;59.450;18.124;2022-08-21T11:08:41;4.43;;;1.33;;
10721;SDS011;5412;59.450;18.124;2022-08-21T11:11:23;4.47;;;1.55;;
10721;SDS011;5412;59.450;18.124;2022-08-21T11:13:51;3.08;;;1.50;;
10721;SDS011;5412;59.450;18.124;2022-08-21T11:19:35;5.20;;;1.50;;
10721;SDS011;5412;59.450;18.124;2022-08-21T11:22:21;4.57;;;1.70;;
10721;SDS011;5412;59.450;18.124;2022-08-21T11:24:51;3.50;;;1.42;;
10721;SDS011;5412;59.450;18.124;2022-08-21T11:27:24;3.92;;;1.60;;
10721;SDS011;5412;59.450;18.124;2022-08-21T11:29:58;5.30;;;1.83;;
10721;SDS011;5412;59.450;18.124;2022-08-21T11:37:42;4.32;;;1.38;;
10721;SDS011;5412;59.450;18.124;2022-08-21T11:40:35;3.67;;;1.90;;
10721;SDS011;5412;59.450;18.124;2022-08-21T11:50:51;3.08;;;1.50;;
10721;SDS011;5412;59.450;18.124;2022-08-21T11:53:20;3.90;;;1.25;;
10721;SDS011;5412;59.450;18.124;2022-08-21T11:55:52;4.47;;;1.50;;
10721;SDS011;5412;59.450;18.124;2022-08-21T11:58:30;1.60;;;1.20;;
10721;SDS011;5412;59.450;18.124;2022-08-21T12:01:01;2.42;;;1.17;;
10721;SDS011;5412;59.450;18.124;2022-08-21T12:03:35;1.65;;;1.00;;
10721;SDS011;5412;59.450;18.124;2022-08-21T12:06:09;3.22;;;1.27;;
10721;SDS011;5412;59.450;18.124;2022-08-21T12:08:43;3.28;;;1.30;;
10721;SDS011;5412;59.450;18.124;2022-08-21T12:16:31;5.03;;;1.55;;
10721;SDS011;5412;59.450;18.124;2022-08-21T12:22:37;5.65;;;1.50;;
10721;SDS011;5412;59.450;18.124;2022-08-21T12:24:33;2.45;;;1.50;;
10721;SDS011;5412;59.450;18.124;2022-08-21T12:30:04;3.17;;;1.27;;
10721;SDS011;5412;59.450;18.124;2022-08-21T12:37:41;3.00;;;1.23;;
10721;SDS011;5412;59.450;18.124;2022-08-21T12:40:18;4.43;;;1.40;;
10721;SDS011;5412;59.450;18.124;2022-08-21T12:42:53;3.60;;;1.30;;
10721;SDS011;5412;59.450;18.124;2022-08-21T12:45:26;2.95;;;1.15;;
10721;SDS011;5412;59.450;18.124;2022-08-21T12:48:06;4.97;;;0.90;;
10721;SDS011;5412;59.450;18.124;2022-08-21T12:50:54;2.28;;;1.10;;
10721;SDS011;5412;59.450;18.124;2022-08-21T12:56:01;3.03;;;1.13;;
10721;SDS011;5412;59.450;18.124;2022-08-21T12:58:28;2.92;;;1.05;;
10721;SDS011;5412;59.450;18.124;2022-08-21T13:01:06;3.78;;;1.08;;
10721;SDS011;5412;59.450;18.124;2022-08-21T13:03:39;1.95;;;1.20;;
10721;SDS011;5412;59.450;18.124;2022-08-21T13:06:06;4.65;;;1.17;;
10721;SDS011;5412;59.450;18.124;2022-08-21T13:08:34;1.38;;;1.20;;
10721;SDS011;5412;59.450;18.124;2022-08-21T13:11:04;1.60;;;1.02;;
10721;SDS011;5412;59.450;18.124;2022-08-21T13:13:31;1.77;;;1.10;;
10721;SDS011;5412;59.450;18.124;2022-08-21T13:15:59;1.17;;;0.90;;
10721;SDS011;5412;59.450;18.124;2022-08-21T13:18:29;3.13;;;1.10;;
10721;SDS011;5412;59.450;18.124;2022-08-21T13:21:05;5.97;;;1.50;;
10721;SDS011;5412;59.450;18.124;2022-08-21T13:23:40;3.13;;;1.30;;
10721;SDS011;5412;59.450;18.124;2022-08-21T13:26:19;2.03;;;0.93;;
10721;SDS011;5412;59.450;18.124;2022-08-21T13:28:46;2.42;;;0.90;;
10721;SDS011;5412;59.450;18.124;2022-08-21T13:31:21;1.30;;;0.85;;
10721;SDS011;5412;59.450;18.124;2022-08-21T13:33:52;1.45;;;0.73;;
10721;SDS011;5412;59.450;18.124;2022-08-21T13:36:24;1.25;;;0.80;;
10721;SDS011;5412;59.450;18.124;2022-08-21T13:38:53;2.58;;;0.93;;
10721;SDS011;5412;59.450;18.124;2022-08-21T13:41:24;2.10;;;0.95;;
10721;SDS011;5412;59.450;18.124;2022-08-21T13:43:59;1.08;;;0.90;;
10721;SDS011;5412;59.450;18.124;2022-08-21T13:46:30;1.00;;;0.90;;
10721;SDS011;5412;59.450;18.124;2022-08-21T13:48:59;3.25;;;1.20;;
10721;SDS011;5412;59.450;18.124;2022-08-21T13:51:27;1.58;;;0.80;;
10721;SDS011;5412;59.450;18.124;2022-08-21T13:53:53;2.08;;;0.75;;
10721;SDS011;5412;59.450;18.124;2022-08-21T13:58:58;3.95;;;1.10;;
10721;SDS011;5412;59.450;18.124;2022-08-21T14:04:05;1.88;;;0.90;;
10721;SDS011;5412;59.450;18.124;2022-08-21T14:06:46;4.72;;;1.00;;
10721;SDS011;5412;59.450;18.124;2022-08-21T14:09:15;2.55;;;1.02;;
10721;SDS011;5412;59.450;18.124;2022-08-21T14:11:52;1.83;;;1.08;;
10721;SDS011;5412;59.450;18.124;2022-08-21T14:14:29;2.35;;;0.90;;
10721;SDS011;5412;59.450;18.124;2022-08-21T14:16:58;4.88;;;1.02;;
10721;SDS011;5412;59.450;18.124;2022-08-21T14:19:34;1.48;;;0.90;;
10721;SDS011;5412;59.450;18.124;2022-08-21T14:25:02;2.17;;;0.70;;
10721;SDS011;5412;59.450;18.124;2022-08-21T14:27:44;2.95;;;0.90;;
10721;SDS011;5412;59.450;18.124;2022-08-21T14:30:27;2.78;;;0.90;;
10721;SDS011;5412;59.450;18.124;2022-08-21T14:32:55;1.20;;;0.70;;
10721;SDS011;5412;59.450;18.124;2022-08-21T14:35:21;1.55;;;1.00;;
10721;SDS011;5412;59.450;18.124;2022-08-21T14:37:47;3.33;;;1.23;;
10721;SDS011;5412;59.450;18.124;2022-08-21T14:40:15;2.78;;;1.00;;
10721;SDS011;5412;59.450;18.124;2022-08-21T14:42:42;1.75;;;1.00;;
10721;SDS011;5412;59.450;18.124;2022-08-21T14:45:30;1.52;;;1.00;;
10721;SDS011;5412;59.450;18.124;2022-08-21T14:47:55;2.35;;;1.00;;
10721;SDS011;5412;59.450;18.124;2022-08-21T14:50:23;2.20;;;1.00;;
10721;SDS011;5412;59.450;18.124;2022-08-21T14:52:49;1.58;;;0.93;;
10721;SDS011;5412;59.450;18.124;2022-08-21T14:55:15;3.00;;;1.00;;
10721;SDS011;5412;59.450;18.124;2022-08-21T14:57:44;2.95;;;1.10;;
10721;SDS011;5412;59.450;18.124;2022-08-21T15:00:13;2.17;;;0.90;;
10721;SDS011;5412;59.450;18.124;2022-08-21T15:02:41;2.08;;;1.42;;
10721;SDS011;5412;59.450;18.124;2022-08-21T15:05:07;2.05;;;1.10;;
10721;SDS011;5412;59.450;18.124;2022-08-21T15:07:34;1.85;;;1.10;;
10721;SDS011;5412;59.450;18.124;2022-08-21T15:09:59;2.08;;;1.20;;
10721;SDS011;5412;59.450;18.124;2022-08-21T15:12:25;3.17;;;1.70;;
10721;SDS011;5412;59.450;18.124;2022-08-21T15:14:51;2.10;;;1.27;;
10721;SDS011;5412;59.450;18.124;2022-08-21T15:17:17;4.03;;;1.23;;
10721;SDS011;5412;59.450;18.124;2022-08-21T15:19:44;1.88;;;1.25;;
10721;SDS011;5412;59.450;18.124;2022-08-21T15:22:09;2.05;;;1.17;;
10721;SDS011;5412;59.450;18.124;2022-08-21T15:24:35;2.17;;;1.00;;
10721;SDS011;5412;59.450;18.124;2022-08-21T15:27:01;1.55;;;1.10;;
10721;SDS011;5412;59.450;18.124;2022-08-21T15:29:29;1.15;;;1.00;;
10721;SDS011;5412;59.450;18.124;2022-08-21T15:31:57;1.98;;;1.02;;
10721;SDS011;5412;59.450;18.124;2022-08-21T15:34:39;1.77;;;1.00;;
10721;SDS011;5412;59.450;18.124;2022-08-21T15:37:05;2.13;;;1.02;;
10721;SDS011;5412;59.450;18.124;2022-08-21T15:39:32;1.23;;;0.80;;
10721;SDS011;5412;59.450;18.124;2022-08-21T15:41:59;0.57;;;0.57;;
10721;SDS011;5412;59.450;18.124;2022-08-21T15:44:24;1.40;;;0.80;;
10721;SDS011;5412;59.450;18.124;2022-08-21T15:46:52;0.85;;;0.82;;
10721;SDS011;5412;59.450;18.124;2022-08-21T15:49:17;1.80;;;0.95;;
10721;SDS011;5412;59.450;18.124;2022-08-21T15:51:43;3.20;;;1.20;;
10721;SDS011;5412;59.450;18.124;2022-08-21T15:54:09;3.75;;;1.00;;
10721;SDS011;5412;59.450;18.124;2022-08-21T15:56:36;2.03;;;0.80;;
10721;SDS011;5412;59.450;18.124;2022-08-21T15:59:12;1.92;;;1.10;;
10721;SDS011;5412;59.450;18.124;2022-08-21T16:01:40;1.70;;;1.00;;
10721;SDS011;5412;59.450;18.124;2022-08-21T16:04:07;1.75;;;0.90;;
10721;SDS011;5412;59.450;18.124;2022-08-21T16:06:33;1.83;;;0.93;;
10721;SDS011;5412;59.450;18.124;2022-08-21T16:08:59;1.77;;;1.05;;
10721;SDS011;5412;59.450;18.124;2022-08-21T16:11:25;2.25;;;1.10;;
10721;SDS011;5412;59.450;18.124;2022-08-21T16:13:51;2.45;;;1.02;;
10721;SDS011;5412;59.450;18.124;2022-08-21T16:16:18;1.08;;;0.98;;
10721;SDS011;5412;59.450;18.124;2022-08-21T16:18:45;2.90;;;1.00;;
10721;SDS011;5412;59.450;18.124;2022-08-21T16:21:12;2.20;;;1.13;;
10721;SDS011;5412;59.450;18.124;2022-08-21T16:23:38;1.65;;;0.85;;
10721;SDS011;5412;59.450;18.124;2022-08-21T16:26:05;3.92;;;1.00;;
10721;SDS011;5412;59.450;18.124;2022-08-21T16:28:33;1.15;;;0.73;;
10721;SDS011;5412;59.450;18.124;2022-08-21T16:31:00;1.98;;;1.00;;
10721;SDS011;5412;59.450;18.124;2022-08-21T16:33:29;2.35;;;1.00;;
10721;SDS011;5412;59.450;18.124;2022-08-21T16:35:58;1.65;;;0.90;;
10721;SDS011;5412;59.450;18.124;2022-08-21T16:38:24;2.63;;;1.13;;
10721;SDS011;5412;59.450;18.124;2022-08-21T16:40:50;2.08;;;1.20;;
10721;SDS011;5412;59.450;18.124;2022-08-21T16:43:16;3.63;;;1.10;;